createdAt,value
2018-12-07T00:01:42.715Z,17.39
2018-12-07T00:04:11.980Z,17.62
2018-12-07T00:06:42.838Z,17.68
2018-12-07T00:09:14.363Z,17.93
2018-12-07T00:11:43.624Z,17.57
2018-12-07T00:14:13.369Z,17.49
2018-12-07T00:16:42.671Z,17.38
2018-12-07T00:19:11.937Z,17.83
2018-12-07T00:21:41.715Z,17.48
2018-12-07T00:24:10.879Z,17.92
2018-12-07T00:26:41.627Z,17.75
2018-12-07T00:29:12.577Z,17.93
2018-12-07T00:31:41.748Z,17.94
2018-12-07T00:34:11.414Z,17.72
2018-12-07T00:36:40.591Z,17.41
2018-12-07T00:39:09.801Z,18.03
2018-12-07T00:41:39.787Z,17.98
2018-12-07T00:44:08.935Z,17.41
2018-12-07T00:46:38.618Z,17.86
2018-12-07T00:49:07.849Z,17.96
2018-12-07T00:51:37.012Z,17.91
2018-12-07T00:54:08.208Z,18.25
2018-12-07T00:56:37.386Z,18.51
2018-12-07T00:59:07.000Z,18.25
2018-12-07T01:01:37.234Z,18.64
2018-12-07T01:04:07.013Z,18.41
2018-12-07T01:06:36.579Z,18.01
2018-12-07T01:09:07.729Z,18.06
2018-12-07T01:11:37.956Z,17.92
2018-12-07T01:14:07.155Z,18.37
2018-12-07T01:16:38.559Z,17.90
2018-12-07T01:19:07.723Z,17.91
2018-12-07T01:21:36.880Z,17.86
2018-12-07T01:24:06.167Z,18.31
2018-12-07T01:26:35.309Z,17.93
2018-12-07T01:29:05.396Z,18.33
2018-12-07T01:31:34.606Z,18.25
2018-12-07T01:34:03.894Z,18.37
2018-12-07T01:36:33.080Z,17.73
2018-12-07T01:39:02.297Z,18.28
2018-12-07T01:41:34.351Z,18.43
2018-12-07T01:44:03.787Z,18.35
2018-12-07T01:46:33.007Z,18.61
2018-12-07T01:49:02.151Z,18.78
2018-12-07T01:51:31.488Z,18.82
2018-12-07T01:54:01.554Z,18.99
2018-12-07T01:56:30.739Z,19.04
2018-12-07T01:59:00.191Z,18.89
2018-12-07T02:01:29.359Z,19.10
2018-12-07T02:03:58.511Z,18.92
2018-12-07T02:06:29.927Z,18.75
2018-12-07T02:08:59.082Z,18.89
2018-12-07T02:11:28.258Z,18.66
2018-12-07T02:13:57.525Z,18.46
2018-12-07T02:16:26.679Z,18.75
2018-12-07T02:18:56.811Z,18.99
2018-12-07T02:21:26.677Z,18.86
2018-12-07T02:23:55.939Z,18.91
2018-12-07T02:26:25.113Z,18.96
2018-12-07T02:28:54.403Z,19.02
2018-12-07T02:31:25.468Z,19.02
2018-12-07T02:33:54.721Z,19.03
2018-12-07T02:36:23.995Z,18.99
2018-12-07T02:38:53.265Z,18.82
2018-12-07T02:41:22.416Z,18.69
2018-12-07T02:43:54.571Z,18.66
2018-12-07T02:46:24.078Z,18.86
2018-12-07T02:48:53.322Z,19.02
2018-12-07T02:51:22.599Z,19.11
2018-12-07T02:53:54.834Z,19.17
2018-12-07T02:56:24.136Z,19.18
2018-12-07T02:58:53.301Z,19.21
2018-12-07T03:01:22.586Z,19.21
2018-12-07T03:03:53.192Z,19.27
2018-12-07T03:06:23.346Z,19.11
2018-12-07T03:08:52.559Z,19.19
2018-12-07T03:11:21.972Z,19.19
2018-12-07T03:13:51.131Z,19.16
2018-12-07T03:16:20.356Z,18.98
2018-12-07T03:18:52.280Z,18.12
2018-12-07T03:21:21.435Z,18.36
2018-12-07T03:23:50.590Z,18.58
2018-12-07T03:26:20.884Z,18.73
2018-12-07T03:28:50.310Z,18.78
2018-12-07T03:31:19.994Z,18.83
2018-12-07T03:33:49.257Z,18.85
2018-12-07T03:36:18.997Z,18.93
2018-12-07T03:38:48.294Z,18.87
2018-12-07T03:41:19.632Z,18.85
2018-12-07T03:43:49.196Z,18.99
2018-12-07T03:46:18.448Z,18.98
2018-12-07T03:48:48.176Z,18.98
2018-12-07T03:51:17.807Z,19.04
2018-12-07T03:53:47.559Z,19.10
2018-12-07T03:57:20.703Z,19.03
2018-12-07T03:59:49.942Z,18.93
2018-12-07T04:02:20.733Z,19.04
2018-12-07T04:04:50.024Z,19.02
2018-12-07T04:07:19.286Z,18.91
2018-12-07T04:09:48.449Z,18.96
2018-12-07T04:12:17.702Z,19.04
2018-12-07T04:14:47.886Z,19.08
2018-12-07T04:17:17.126Z,18.81
2018-12-07T04:19:46.341Z,18.74
2018-12-07T04:22:15.488Z,18.89
2018-12-07T04:24:45.749Z,18.70
2018-12-07T04:27:16.358Z,18.64
2018-12-07T04:29:45.527Z,18.65
2018-12-07T04:32:14.780Z,18.49
2018-12-07T04:34:44.081Z,18.59
2018-12-07T04:37:13.407Z,18.38
2018-12-07T04:39:43.545Z,18.50
2018-12-07T04:42:12.762Z,18.52
2018-12-07T04:44:42.069Z,18.56
2018-12-07T04:47:11.250Z,18.46
2018-12-07T04:49:41.840Z,17.86
2018-12-07T04:52:11.982Z,18.23
2018-12-07T04:54:41.141Z,17.85
2018-12-07T04:57:10.496Z,17.87
2018-12-07T04:59:39.663Z,18.09
2018-12-07T05:02:08.941Z,17.91
2018-12-07T05:04:39.946Z,17.76
2018-12-07T05:07:09.113Z,17.87
2018-12-07T05:09:38.301Z,17.78
2018-12-07T05:12:07.563Z,17.87
2018-12-07T05:14:36.847Z,17.89
2018-12-07T05:17:07.453Z,17.91
2018-12-07T05:19:36.697Z,17.69
2018-12-07T05:22:05.855Z,17.25
2018-12-07T05:24:35.086Z,17.53
2018-12-07T05:27:04.418Z,17.75
2018-12-07T05:29:34.532Z,17.55
2018-12-07T05:32:04.307Z,17.37
2018-12-07T05:34:33.562Z,17.63
2018-12-07T05:37:02.799Z,17.63
2018-12-07T05:39:31.983Z,17.51
2018-12-07T05:42:04.307Z,17.44
2018-12-07T05:44:33.482Z,17.57
2018-12-07T05:47:02.873Z,17.39
2018-12-07T05:49:32.159Z,17.32
2018-12-07T05:52:01.861Z,17.28
2018-12-07T05:54:31.515Z,17.33
2018-12-07T05:57:00.989Z,17.30
2018-12-07T05:59:30.359Z,17.29
2018-12-07T06:01:59.523Z,16.96
2018-12-07T06:04:30.092Z,16.76
2018-12-07T06:06:59.675Z,16.50
2018-12-07T06:09:28.927Z,16.34
2018-12-07T06:11:58.204Z,15.97
2018-12-07T06:14:27.400Z,16.07
2018-12-07T06:16:57.031Z,15.87
2018-12-07T06:19:26.597Z,16.15
2018-12-07T06:21:55.759Z,16.15
2018-12-07T06:24:24.900Z,16.37
2018-12-07T06:26:54.217Z,16.18
2018-12-07T06:29:24.805Z,16.01
2018-12-07T06:31:54.400Z,16.01
2018-12-07T06:34:23.582Z,15.76
2018-12-07T06:36:52.739Z,15.84
2018-12-07T06:39:21.905Z,16.06
2018-12-07T06:41:51.692Z,16.21
2018-12-07T06:44:21.381Z,16.07
2018-12-07T06:46:50.685Z,16.30
2018-12-07T06:49:19.943Z,16.15
2018-12-07T06:51:49.136Z,16.38
2018-12-07T06:54:19.895Z,16.52
2018-12-07T06:56:49.696Z,16.59
2018-12-07T06:59:18.847Z,16.27
2018-12-07T07:01:48.888Z,16.43
2018-12-07T07:04:19.520Z,16.46
2018-12-07T07:06:49.089Z,16.60
2018-12-07T07:09:18.270Z,16.76
2018-12-07T07:11:47.539Z,16.62
2018-12-07T07:14:16.714Z,16.54
2018-12-07T07:16:46.673Z,16.49
2018-12-07T07:19:15.949Z,16.48
2018-12-07T07:21:45.124Z,16.72
2018-12-07T07:24:14.312Z,16.60
2018-12-07T07:26:44.411Z,16.49
2018-12-07T07:29:15.316Z,16.34
2018-12-07T07:31:44.876Z,16.71
2018-12-07T07:34:14.198Z,17.03
2018-12-07T07:36:43.524Z,17.25
2018-12-07T07:39:12.678Z,17.40
2018-12-07T07:41:44.023Z,17.41
2018-12-07T07:44:13.179Z,17.58
2018-12-07T07:46:42.348Z,17.50
2018-12-07T07:49:12.691Z,17.44
2018-12-07T07:51:42.052Z,17.54
2018-12-07T07:54:11.625Z,17.79
2018-12-07T07:56:41.048Z,17.76
2018-12-07T07:59:10.227Z,17.94
2018-12-07T08:01:39.391Z,17.67
2018-12-07T08:04:09.971Z,17.82
2018-12-07T08:06:39.657Z,17.74
2018-12-07T08:09:08.803Z,17.61
2018-12-07T08:11:38.035Z,17.51
2018-12-07T08:14:07.360Z,17.69
2018-12-07T08:16:37.168Z,17.77
2018-12-07T08:19:06.981Z,17.79
2018-12-07T08:21:37.328Z,17.30
2018-12-07T08:24:06.526Z,17.78
2018-12-07T08:26:36.468Z,17.75
2018-12-07T08:29:07.480Z,18.06
2018-12-07T08:31:36.766Z,17.69
2018-12-07T08:34:06.127Z,17.65
2018-12-07T08:36:35.324Z,17.55
2018-12-07T08:39:09.746Z,17.75
2018-12-07T08:41:38.913Z,18.11
2018-12-07T08:44:08.070Z,18.04
2018-12-07T08:46:38.556Z,17.85
2018-12-07T08:49:08.798Z,17.83
2018-12-07T08:51:38.592Z,18.07
2018-12-07T08:54:07.851Z,17.99
2018-12-07T08:56:37.036Z,17.99
2018-12-07T08:59:06.500Z,18.13
2018-12-07T09:01:38.094Z,18.46
2018-12-07T09:04:07.949Z,18.53
2018-12-07T09:06:37.247Z,17.94
2018-12-07T09:09:08.076Z,17.97
2018-12-07T09:11:38.993Z,17.98
2018-12-07T09:14:08.775Z,18.05
2018-12-07T09:16:37.980Z,17.84
2018-12-07T09:19:07.287Z,18.07
2018-12-07T09:21:36.479Z,17.78
2018-12-07T09:24:06.291Z,18.05
2018-12-07T09:26:36.764Z,17.67
2018-12-07T09:29:07.450Z,18.15
2018-12-07T09:31:36.644Z,18.30
2018-12-07T09:34:07.198Z,18.41
2018-12-07T09:36:36.380Z,18.37
2018-12-07T09:39:09.551Z,18.67
2018-12-07T09:41:38.706Z,18.60
2018-12-07T09:44:08.298Z,18.64
2018-12-07T09:46:38.511Z,18.82
2018-12-07T09:49:07.737Z,18.89
2018-12-07T09:51:37.418Z,18.44
2018-12-07T09:54:07.954Z,18.55
2018-12-07T09:56:38.074Z,18.07
2018-12-07T09:59:07.318Z,17.69
2018-12-07T10:01:36.517Z,17.93
2018-12-07T10:04:06.154Z,18.02
2018-12-07T10:06:35.320Z,18.11
2018-12-07T10:09:08.196Z,18.05
2018-12-07T10:11:37.369Z,17.92
2018-12-07T10:14:09.704Z,17.85
2018-12-07T10:16:38.880Z,17.68
2018-12-07T10:19:08.578Z,17.54
2018-12-07T10:21:38.253Z,17.76
2018-12-07T10:24:07.401Z,18.03
2018-12-07T10:26:37.369Z,17.86
2018-12-07T10:29:06.705Z,18.27
2018-12-07T10:31:37.158Z,18.25
2018-12-07T10:34:06.333Z,18.07
2018-12-07T10:36:35.696Z,17.76
2018-12-07T10:39:07.457Z,17.27
2018-12-07T10:41:39.478Z,17.71
2018-12-07T10:44:08.580Z,17.69
2018-12-07T10:46:38.887Z,17.77
2018-12-07T10:49:08.539Z,17.73
2018-12-07T10:51:39.206Z,17.54
2018-12-07T10:54:08.363Z,17.09
2018-12-07T10:56:37.566Z,17.25
2018-12-07T10:59:06.721Z,16.72
2018-12-07T11:01:43.153Z,17.24
2018-12-07T11:04:18.107Z,17.61
2018-12-07T11:06:49.453Z,17.47
2018-12-07T11:09:24.747Z,17.74
2018-12-07T11:11:59.759Z,17.49
2018-12-07T11:14:35.878Z,17.84
2018-12-07T11:17:10.932Z,17.20
2018-12-07T11:19:45.315Z,16.34
2018-12-07T11:22:21.338Z,16.51
2018-12-07T11:24:56.197Z,17.04
2018-12-07T11:27:30.632Z,16.67
2018-12-07T11:30:06.834Z,16.75
2018-12-07T11:32:45.026Z,16.98
2018-12-07T11:35:21.164Z,17.10
2018-12-07T11:37:50.633Z,17.20
2018-12-07T11:40:19.776Z,17.82
2018-12-07T11:42:51.469Z,17.87
2018-12-07T11:45:21.124Z,17.39
2018-12-07T11:47:50.319Z,17.61
2018-12-07T11:50:19.513Z,17.90
2018-12-07T11:52:48.659Z,18.13
2018-12-07T11:55:18.278Z,17.81
2018-12-07T11:57:48.564Z,17.87
2018-12-07T12:00:17.711Z,18.15
2018-12-07T12:02:47.266Z,18.49
2018-12-07T12:05:17.936Z,17.99
2018-12-07T12:07:47.595Z,17.94
2018-12-07T12:10:17.214Z,18.10
2018-12-07T12:12:46.576Z,18.42
2018-12-07T12:15:15.856Z,18.46
2018-12-07T12:17:45.207Z,17.56
2018-12-07T12:20:16.039Z,17.97
2018-12-07T12:22:45.207Z,18.20
2018-12-07T12:25:14.452Z,18.09
2018-12-07T12:27:44.736Z,17.75
2018-12-07T12:30:14.475Z,18.15
2018-12-07T12:32:44.189Z,17.71
2018-12-07T12:35:13.433Z,18.18
2018-12-07T12:37:42.631Z,17.74
2018-12-07T12:40:11.798Z,17.85
2018-12-07T12:42:42.565Z,17.55
2018-12-07T12:45:11.902Z,16.77
2018-12-07T12:47:41.101Z,16.90
2018-12-07T12:50:16.744Z,17.17
2018-12-07T12:52:47.025Z,17.12
2018-12-07T12:55:16.171Z,17.37
2018-12-07T12:57:45.434Z,17.55
2018-12-07T13:00:14.704Z,17.21
2018-12-07T13:02:43.878Z,17.30
2018-12-07T13:05:16.551Z,17.37
2018-12-07T13:07:45.751Z,17.20
2018-12-07T13:10:14.976Z,17.59
2018-12-07T13:12:44.380Z,17.87
2018-12-07T13:15:14.515Z,17.63
2018-12-07T13:17:43.682Z,17.41
2018-12-07T13:20:13.008Z,17.00
2018-12-07T13:22:42.513Z,17.60
2018-12-07T13:25:11.820Z,17.86
2018-12-07T13:27:44.061Z,17.05
2018-12-07T13:30:13.416Z,17.52
2018-12-07T13:32:42.559Z,17.26
2018-12-07T13:35:11.851Z,17.41
2018-12-07T13:37:41.534Z,17.17
2018-12-07T13:40:11.156Z,17.62
2018-12-07T13:42:40.424Z,17.50
2018-12-07T13:45:10.121Z,16.90
2018-12-07T13:47:39.414Z,16.89
2018-12-07T13:50:15.244Z,16.84
2018-12-07T13:52:45.004Z,16.56
2018-12-07T13:55:14.400Z,16.95
2018-12-07T13:57:45.805Z,16.96
2018-12-07T14:00:16.290Z,17.03
2018-12-07T14:02:45.668Z,17.55
2018-12-07T14:05:17.854Z,17.74
2018-12-07T14:07:47.206Z,17.79
2018-12-07T14:10:16.537Z,17.91
2018-12-07T14:12:46.145Z,17.75
2018-12-07T14:15:15.433Z,17.36
2018-12-07T14:17:44.746Z,17.27
2018-12-07T14:20:14.323Z,17.32
2018-12-07T14:22:45.167Z,17.39
2018-12-07T14:25:14.810Z,17.24
2018-12-07T14:27:46.347Z,17.31
2018-12-07T14:30:15.702Z,17.16
2018-12-07T14:32:45.298Z,17.38
2018-12-07T14:35:14.758Z,17.09
2018-12-07T14:37:44.600Z,17.33
2018-12-07T14:40:14.036Z,17.68
2018-12-07T14:42:43.500Z,17.40
2018-12-07T14:45:14.216Z,17.26
2018-12-07T14:47:43.827Z,17.31
2018-12-07T14:50:13.715Z,17.24
2018-12-07T14:52:42.892Z,17.39
2018-12-07T14:55:12.533Z,17.13
2018-12-07T14:57:42.465Z,17.47
2018-12-07T15:00:12.019Z,17.68
2018-12-07T15:02:42.571Z,17.58
2018-12-07T15:05:11.926Z,17.30
2018-12-07T15:07:43.336Z,17.06
2018-12-07T15:10:12.636Z,17.30
2018-12-07T15:12:42.018Z,17.37
2018-12-07T15:15:11.302Z,17.73
2018-12-07T15:17:40.612Z,17.57
2018-12-07T15:20:12.722Z,16.79
2018-12-07T15:22:42.273Z,17.30
2018-12-07T15:25:11.520Z,17.02
2018-12-07T15:27:41.078Z,16.47
2018-12-07T15:30:10.896Z,16.85
2018-12-07T15:32:42.421Z,16.56
2018-12-07T15:35:12.466Z,16.45
2018-12-07T15:37:41.641Z,16.74
2018-12-07T15:40:12.670Z,16.35
2018-12-07T15:42:42.199Z,16.90
2018-12-07T15:45:11.849Z,16.49
2018-12-07T15:47:41.153Z,16.75
2018-12-07T15:50:10.728Z,16.92
2018-12-07T15:52:40.030Z,16.54
2018-12-07T15:55:11.256Z,16.53
2018-12-07T15:57:40.948Z,16.56
2018-12-07T16:00:10.527Z,16.64
2018-12-07T16:02:40.498Z,16.91
2018-12-07T16:05:10.359Z,16.64
2018-12-07T16:07:39.730Z,16.61
2018-12-07T16:10:10.026Z,16.83
2018-12-07T16:12:40.733Z,16.17
2018-12-07T16:15:11.059Z,16.69
2018-12-07T16:17:42.368Z,16.22
2018-12-07T16:20:16.069Z,16.45
2018-12-07T16:22:45.822Z,16.51
2018-12-07T16:25:15.982Z,16.36
2018-12-07T16:27:46.650Z,16.48
2018-12-07T16:30:16.146Z,15.95
2018-12-07T16:32:45.402Z,16.36
2018-12-07T16:35:14.972Z,16.46
2018-12-07T16:37:45.836Z,16.45
2018-12-07T16:40:16.387Z,15.68
2018-12-07T16:42:45.896Z,16.07
2018-12-07T16:45:15.286Z,16.28
2018-12-07T16:47:45.278Z,16.37
2018-12-07T16:50:15.470Z,16.68
2018-12-07T16:52:45.280Z,16.57
2018-12-07T16:55:14.994Z,16.60
2018-12-07T16:57:44.343Z,16.69
2018-12-07T17:00:15.248Z,16.88
2018-12-07T17:02:44.616Z,16.56
2018-12-07T17:05:13.950Z,16.38
2018-12-07T17:07:43.992Z,16.66
2018-12-07T17:10:15.053Z,16.16
2018-12-07T17:12:44.864Z,16.49
2018-12-07T17:15:14.212Z,16.25
2018-12-07T17:17:43.388Z,16.18
2018-12-07T17:20:12.782Z,16.08
2018-12-07T17:22:42.994Z,15.99
2018-12-07T17:25:12.711Z,16.34
2018-12-07T17:27:42.815Z,16.52
2018-12-07T17:30:12.079Z,16.55
2018-12-07T17:32:41.392Z,16.73
2018-12-07T17:35:11.276Z,16.19
2018-12-07T17:37:41.057Z,15.93
2018-12-07T17:40:11.632Z,15.85
2018-12-07T17:42:42.122Z,15.87
2018-12-07T17:45:12.544Z,14.67
2018-12-07T17:47:41.995Z,15.12
2018-12-07T17:50:11.944Z,14.57
2018-12-07T17:52:41.223Z,14.74
2018-12-07T17:55:10.658Z,14.39
2018-12-07T17:57:40.749Z,13.84
2018-12-07T18:00:12.997Z,14.33
2018-12-07T18:02:42.868Z,14.63
2018-12-07T18:05:12.396Z,14.06
2018-12-07T18:07:44.019Z,14.47
2018-12-07T18:10:13.294Z,14.33
2018-12-07T18:12:42.984Z,14.26
2018-12-07T18:15:12.827Z,14.24
2018-12-07T18:17:42.830Z,13.46
2018-12-07T18:20:12.142Z,13.78
2018-12-07T18:22:41.403Z,13.27
2018-12-07T18:25:10.684Z,13.42
2018-12-07T18:27:40.547Z,13.92
2018-12-07T18:30:11.892Z,13.86
2018-12-07T18:32:41.250Z,14.06
2018-12-07T18:35:10.845Z,13.47
2018-12-07T18:37:40.463Z,13.07
2018-12-07T18:40:10.481Z,13.30
2018-12-07T18:42:40.411Z,13.82
2018-12-07T18:45:10.017Z,13.43
2018-12-07T18:47:39.356Z,12.83
2018-12-07T18:50:09.574Z,13.65
2018-12-07T18:52:40.997Z,13.45
2018-12-07T18:55:11.080Z,13.07
2018-12-07T18:57:40.613Z,13.35
2018-12-07T19:00:10.710Z,13.45
2018-12-07T19:02:40.651Z,13.34
2018-12-07T19:05:10.753Z,13.45
2018-12-07T19:07:41.110Z,13.05
2018-12-07T19:10:10.460Z,12.82
2018-12-07T19:12:39.914Z,13.05
2018-12-07T19:15:11.740Z,13.31
2018-12-07T19:17:41.026Z,13.50
2018-12-07T19:20:10.588Z,13.64
2018-12-07T19:22:39.963Z,13.59
2018-12-07T19:25:10.122Z,13.63
2018-12-07T19:27:40.046Z,13.43
2018-12-07T19:30:14.826Z,13.56
2018-12-07T19:32:43.474Z,13.62
2018-12-07T19:35:14.518Z,13.56
2018-12-07T19:37:43.984Z,13.73
2018-12-07T19:40:13.549Z,14.03
2018-12-07T19:42:43.067Z,13.97
2018-12-07T19:45:13.148Z,13.72
2018-12-07T19:47:42.983Z,12.88
2018-12-07T19:50:12.796Z,13.56
2018-12-07T19:52:42.250Z,13.67
2018-12-07T19:55:11.579Z,13.31
2018-12-07T19:57:42.239Z,13.28
2018-12-07T20:00:13.943Z,13.11
2018-12-07T20:02:43.746Z,13.13
2018-12-07T20:05:13.384Z,12.70
2018-12-07T20:07:45.060Z,12.76
2018-12-07T20:10:15.149Z,13.01
2018-12-07T20:12:44.408Z,13.53
2018-12-07T20:15:16.134Z,12.63
2018-12-07T20:17:47.429Z,12.96
2018-12-07T20:20:16.995Z,13.17
2018-12-07T20:22:46.356Z,13.04
2018-12-07T20:25:16.255Z,12.83
2018-12-07T20:27:45.743Z,13.26
2018-12-07T20:30:16.340Z,13.02
2018-12-07T20:32:45.611Z,13.16
2018-12-07T20:35:15.015Z,13.46
2018-12-07T20:37:44.196Z,12.67
2018-12-07T20:40:13.778Z,13.36
2018-12-07T20:42:45.427Z,13.53
2018-12-07T20:45:14.753Z,13.59
2018-12-07T20:47:44.395Z,13.29
2018-12-07T20:50:13.947Z,13.48
2018-12-07T20:52:43.802Z,12.28
2018-12-07T20:55:13.872Z,12.53
2018-12-07T20:57:43.923Z,12.87
2018-12-07T21:00:13.399Z,13.01
2018-12-07T21:02:42.970Z,13.18
2018-12-07T21:05:40.727Z,11.99
2018-12-07T21:08:32.949Z,12.29
2018-12-07T21:11:14.435Z,12.14
2018-12-07T21:14:52.236Z,12.41
2018-12-07T21:17:32.369Z,12.52
2018-12-07T21:20:25.278Z,12.21
2018-12-07T21:22:54.849Z,12.16
2018-12-07T21:25:24.295Z,11.96
2018-12-07T21:27:55.938Z,12.21
2018-12-07T21:30:59.552Z,12.32
2018-12-07T21:33:56.293Z,12.06
2018-12-07T21:36:39.888Z,11.65
2018-12-07T21:40:19.587Z,11.66
2018-12-07T21:42:49.164Z,11.92
2018-12-07T21:45:18.463Z,11.89
2018-12-07T21:48:33.384Z,12.43
2018-12-07T21:52:16.418Z,11.33
2018-12-07T21:54:45.902Z,11.63
2018-12-07T21:57:15.526Z,12.23
2018-12-07T21:59:44.958Z,12.56
2018-12-07T22:02:15.193Z,12.77
2018-12-07T22:04:44.800Z,12.79
2018-12-07T22:07:14.473Z,12.73
2018-12-07T22:09:44.336Z,12.77
2018-12-07T22:12:13.687Z,12.94
2018-12-07T22:14:44.998Z,13.04
2018-12-07T22:17:14.824Z,12.50
2018-12-07T22:19:44.355Z,12.70
2018-12-07T22:22:13.727Z,12.61
2018-12-07T22:24:43.487Z,12.26
2018-12-07T22:27:12.926Z,12.30
2018-12-07T22:29:42.671Z,12.07
2018-12-07T22:32:12.103Z,11.89
2018-12-07T22:34:41.589Z,11.97
2018-12-07T22:37:11.941Z,11.68
2018-12-07T22:39:41.456Z,11.78
2018-12-07T22:42:11.378Z,12.13
2018-12-07T22:44:40.971Z,12.10
2018-12-07T22:47:13.043Z,12.13
2018-12-07T22:49:42.908Z,12.36
2018-12-07T22:52:12.077Z,12.47
2018-12-07T22:54:41.438Z,12.36
2018-12-07T22:57:10.654Z,12.73
2018-12-07T22:59:41.742Z,12.79
2018-12-07T23:02:11.337Z,12.58
2018-12-07T23:04:40.499Z,11.75
2018-12-07T23:07:09.631Z,11.87
2018-12-07T23:09:38.992Z,12.33
2018-12-07T23:12:10.283Z,12.14
2018-12-07T23:14:39.504Z,12.63
2018-12-07T23:17:08.793Z,12.56
2018-12-07T23:19:38.988Z,12.32
2018-12-07T23:22:11.979Z,12.23
2018-12-07T23:24:42.636Z,12.42
2018-12-07T23:27:11.802Z,12.69
2018-12-07T23:29:41.027Z,12.66
2018-12-07T23:32:10.363Z,12.83
2018-12-07T23:34:40.424Z,13.01
2018-12-07T23:37:09.734Z,12.66
2018-12-07T23:39:38.928Z,12.31
2018-12-07T23:42:08.108Z,12.21
2018-12-07T23:44:37.345Z,11.23
2018-12-07T23:47:08.441Z,11.70
2018-12-07T23:49:37.600Z,11.93
2018-12-07T23:52:07.044Z,12.33
2018-12-07T23:54:36.275Z,12.46
2018-12-07T23:57:05.440Z,12.20
2018-12-07T23:59:35.587Z,12.79
